RYR9265 EGPH-EGNX
Flight info
| Callsign | RYR9265 |
|---|---|
| Flight time | 0h 45m |
| Altitude | 27000 |
| Route | GOSAM P600 FENIK L612 NAVSO DCT AKOMU DCT VAMEB UL612 CROFT DCT MCT DCT VEGAR |
| Aircraft | B738/M-SDE2E3FGHIRWXY/LB1 |
Departure
| Time | 2026-04-22 02:03 |
|---|---|
| Airport | Edinburgh Airport (EGPH) |
Arrival
| Time | 2026-04-22 02:49 |
|---|---|
| Airport | East Midlands Airport (EGNX) |
| Time | Latitude | Longitude | Altitude | Speed | Heading |
|---|---|---|---|---|---|
| 2026-04-22 01:53 | 55.94941 | -3.36355 | 144 ft | 0 kts | 149° |
| 2026-04-22 01:56 | 55.94942 | -3.36356 | 144 ft | 1 kts | 149° |
| 2026-04-22 01:56 | 55.94952 | -3.36367 | 144 ft | 2 kts | 149° |
| 2026-04-22 01:57 | 55.94967 | -3.36385 | 144 ft | 3 kts | 135° |
| 2026-04-22 01:57 | 55.94978 | -3.36414 | 144 ft | 3 kts | 104° |
| 2026-04-22 01:57 | 55.94978 | -3.36449 | 144 ft | 2 kts | 84° |
| 2026-04-22 01:57 | 55.94977 | -3.36479 | 144 ft | 3 kts | 83° |
| 2026-04-22 01:58 | 55.94973 | -3.36513 | 144 ft | 3 kts | 67° |
| 2026-04-22 01:58 | 55.94969 | -3.36525 | 144 ft | 0 kts | 60° |
| 2026-04-22 01:58 | 55.94970 | -3.36522 | 144 ft | 1 kts | 60° |
| 2026-04-22 01:59 | 55.94978 | -3.36498 | 144 ft | 3 kts | 60° |
| 2026-04-22 01:59 | 55.94993 | -3.36452 | 144 ft | 5 kts | 59° |
| 2026-04-22 01:59 | 55.95020 | -3.36391 | 144 ft | 7 kts | 33° |
| 2026-04-22 01:59 | 55.95066 | -3.36401 | 144 ft | 8 kts | 317° |
| 2026-04-22 02:00 | 55.95062 | -3.36501 | 144 ft | 10 kts | 239° |
| 2026-04-22 02:00 | 55.95022 | -3.36617 | 144 ft | 12 kts | 239° |
| 2026-04-22 02:00 | 55.94974 | -3.36761 | 144 ft | 15 kts | 239° |
| 2026-04-22 02:00 | 55.94918 | -3.36927 | 144 ft | 17 kts | 239° |
| 2026-04-22 02:01 | 55.94854 | -3.37118 | 144 ft | 19 kts | 239° |
| 2026-04-22 02:01 | 55.94781 | -3.37333 | 144 ft | 21 kts | 239° |
| 2026-04-22 02:01 | 55.94704 | -3.37562 | 144 ft | 20 kts | 239° |
| 2026-04-22 02:01 | 55.94645 | -3.37738 | 144 ft | 13 kts | 239° |
| 2026-04-22 02:02 | 55.94606 | -3.37855 | 144 ft | 10 kts | 239° |
| 2026-04-22 02:02 | 55.94615 | -3.37967 | 144 ft | 11 kts | 324° |
| 2026-04-22 02:02 | 55.94683 | -3.38043 | 144 ft | 9 kts | 329° |
| 2026-04-22 02:02 | 55.94733 | -3.38035 | 144 ft | 8 kts | 46° |
| 2026-04-22 02:03 | 55.94809 | -3.37819 | 144 ft | 47 kts | 59° |
| 2026-04-22 02:03 | 55.95083 | -3.37006 | 144 ft | 106 kts | 59° |
| 2026-04-22 02:03 | 55.95553 | -3.35605 | 260 ft | 146 kts | 59° |
| 2026-04-22 02:03 | 55.96064 | -3.34040 | 960 ft | 146 kts | 61° |
| 2026-04-22 02:04 | 55.97569 | -3.31538 | 2445 ft | 150 kts | 40° |
| 2026-04-22 02:04 | 55.98433 | -3.30461 | 3163 ft | 154 kts | 39° |
| 2026-04-22 02:04 | 55.99350 | -3.29361 | 3833 ft | 164 kts | 36° |
| 2026-04-22 02:05 | 56.00508 | -3.28919 | 4466 ft | 182 kts | 2° |
| 2026-04-22 02:05 | 56.01699 | -3.29817 | 5124 ft | 198 kts | 327° |
| 2026-04-22 02:05 | 56.02506 | -3.31901 | 5770 ft | 213 kts | 292° |
| 2026-04-22 02:05 | 56.02653 | -3.34605 | 6456 ft | 224 kts | 266° |
| 2026-04-22 02:06 | 56.02416 | -3.37395 | 7134 ft | 236 kts | 258° |
| 2026-04-22 02:06 | 56.02054 | -3.40366 | 7825 ft | 253 kts | 256° |
| 2026-04-22 02:06 | 56.01643 | -3.43508 | 8659 ft | 265 kts | 255° |
| 2026-04-22 02:06 | 56.01211 | -3.46761 | 9611 ft | 271 kts | 255° |
| 2026-04-22 02:07 | 56.00775 | -3.50038 | 10585 ft | 275 kts | 255° |
| 2026-04-22 02:07 | 56.00325 | -3.53394 | 11569 ft | 280 kts | 255° |
| 2026-04-22 02:07 | 55.99866 | -3.56798 | 12548 ft | 285 kts | 255° |
| 2026-04-22 02:07 | 55.99383 | -3.60259 | 13531 ft | 288 kts | 253° |
| 2026-04-22 02:08 | 55.98559 | -3.63503 | 14514 ft | 285 kts | 231° |
| 2026-04-22 02:08 | 55.97127 | -3.65815 | 15512 ft | 277 kts | 207° |
| 2026-04-22 02:08 | 55.95350 | -3.67050 | 16528 ft | 274 kts | 192° |
| 2026-04-22 02:08 | 55.93488 | -3.67752 | 17533 ft | 278 kts | 187° |
| 2026-04-22 02:09 | 55.91540 | -3.68266 | 18440 ft | 286 kts | 185° |
| 2026-04-22 02:09 | 55.89555 | -3.68702 | 19296 ft | 294 kts | 184° |
| 2026-04-22 02:09 | 55.87487 | -3.69120 | 20118 ft | 303 kts | 184° |
| 2026-04-22 02:09 | 55.85352 | -3.69536 | 20865 ft | 313 kts | 184° |
| 2026-04-22 02:10 | 55.83169 | -3.69953 | 21594 ft | 323 kts | 184° |
| 2026-04-22 02:10 | 55.80897 | -3.70386 | 22329 ft | 331 kts | 184° |
| 2026-04-22 02:10 | 55.78573 | -3.70830 | 23054 ft | 339 kts | 184° |
| 2026-04-22 02:10 | 55.76188 | -3.71286 | 23713 ft | 348 kts | 184° |
| 2026-04-22 02:11 | 55.73780 | -3.71745 | 24341 ft | 356 kts | 184° |
| 2026-04-22 02:11 | 55.71279 | -3.72213 | 24974 ft | 364 kts | 184° |
| 2026-04-22 02:11 | 55.68721 | -3.72680 | 25607 ft | 370 kts | 184° |
| 2026-04-22 02:11 | 55.66161 | -3.73163 | 26230 ft | 376 kts | 185° |
| 2026-04-22 02:12 | 55.63534 | -3.73663 | 26787 ft | 382 kts | 185° |
| 2026-04-22 02:12 | 55.60831 | -3.74169 | 27159 ft | 394 kts | 185° |
| 2026-04-22 02:12 | 55.58092 | -3.74668 | 27391 ft | 407 kts | 185° |
| 2026-04-22 02:12 | 55.55210 | -3.75192 | 27519 ft | 422 kts | 186° |
| 2026-04-22 02:13 | 55.52258 | -3.75751 | 27572 ft | 437 kts | 186° |
| 2026-04-22 02:13 | 55.49199 | -3.76343 | 27571 ft | 441 kts | 186° |
| 2026-04-22 02:13 | 55.46154 | -3.76935 | 27565 ft | 440 kts | 186° |
| 2026-04-22 02:13 | 55.43134 | -3.77522 | 27561 ft | 438 kts | 186° |
| 2026-04-22 02:14 | 55.40085 | -3.78109 | 27558 ft | 437 kts | 186° |
| 2026-04-22 02:14 | 55.37078 | -3.78686 | 27552 ft | 437 kts | 186° |
| 2026-04-22 02:14 | 55.34039 | -3.79265 | 27546 ft | 437 kts | 186° |
| 2026-04-22 02:14 | 55.31000 | -3.79841 | 27543 ft | 437 kts | 186° |
| 2026-04-22 02:15 | 55.27972 | -3.80373 | 27542 ft | 437 kts | 184° |
| 2026-04-22 02:15 | 55.24974 | -3.80010 | 27549 ft | 438 kts | 170° |
| 2026-04-22 02:15 | 55.22016 | -3.78689 | 27560 ft | 439 kts | 163° |
| 2026-04-22 02:15 | 55.19157 | -3.76908 | 27554 ft | 440 kts | 159° |
| 2026-04-22 02:16 | 55.16301 | -3.74857 | 27543 ft | 440 kts | 157° |
| 2026-04-22 02:16 | 55.13516 | -3.72713 | 27535 ft | 441 kts | 156° |
| 2026-04-22 02:16 | 55.10694 | -3.70464 | 27531 ft | 441 kts | 156° |
| 2026-04-22 02:16 | 55.07929 | -3.68218 | 27528 ft | 442 kts | 155° |
| 2026-04-22 02:17 | 55.05160 | -3.65946 | 27525 ft | 443 kts | 155° |
| 2026-04-22 02:17 | 55.02365 | -3.63638 | 27524 ft | 443 kts | 155° |
| 2026-04-22 02:17 | 54.99571 | -3.61321 | 27523 ft | 444 kts | 155° |
| 2026-04-22 02:17 | 54.96786 | -3.59006 | 27521 ft | 445 kts | 155° |
| 2026-04-22 02:18 | 54.93995 | -3.56682 | 27519 ft | 446 kts | 155° |
| 2026-04-22 02:18 | 54.91176 | -3.54332 | 27505 ft | 447 kts | 155° |
| 2026-04-22 02:18 | 54.88388 | -3.52007 | 27496 ft | 447 kts | 155° |
| 2026-04-22 02:18 | 54.85564 | -3.49651 | 27492 ft | 448 kts | 155° |
| 2026-04-22 02:19 | 54.82787 | -3.47331 | 27490 ft | 449 kts | 155° |
| 2026-04-22 02:19 | 54.79965 | -3.44973 | 27489 ft | 449 kts | 155° |
| 2026-04-22 02:19 | 54.77145 | -3.42616 | 27487 ft | 450 kts | 155° |
| 2026-04-22 02:19 | 54.74344 | -3.40273 | 27486 ft | 450 kts | 155° |
| 2026-04-22 02:20 | 54.71503 | -3.37894 | 27484 ft | 451 kts | 155° |
| 2026-04-22 02:20 | 54.68659 | -3.35512 | 27483 ft | 451 kts | 155° |
| 2026-04-22 02:20 | 54.65851 | -3.33168 | 27482 ft | 452 kts | 155° |
| 2026-04-22 02:20 | 54.63030 | -3.30853 | 27480 ft | 452 kts | 156° |
| 2026-04-22 02:21 | 54.60166 | -3.28530 | 27479 ft | 452 kts | 156° |
| 2026-04-22 02:21 | 54.57337 | -3.26250 | 27477 ft | 453 kts | 156° |
| 2026-04-22 02:21 | 54.54464 | -3.23908 | 27476 ft | 453 kts | 156° |
| 2026-04-22 02:21 | 54.51645 | -3.21588 | 27474 ft | 453 kts | 155° |
| 2026-04-22 02:22 | 54.48800 | -3.19221 | 27473 ft | 454 kts | 155° |
| 2026-04-22 02:22 | 54.46911 | -3.17636 | 27471 ft | 454 kts | 155° |
| 2026-04-22 02:22 | 54.44067 | -3.15257 | 27470 ft | 454 kts | 155° |
| 2026-04-22 02:22 | 54.40277 | -3.12101 | 27467 ft | 454 kts | 155° |
| 2026-04-22 02:23 | 54.38382 | -3.10525 | 27466 ft | 454 kts | 155° |
| 2026-04-22 02:23 | 54.35529 | -3.08156 | 27464 ft | 454 kts | 155° |
| 2026-04-22 02:23 | 54.32704 | -3.05814 | 27462 ft | 454 kts | 155° |
| 2026-04-22 02:23 | 54.29836 | -3.03443 | 27456 ft | 454 kts | 155° |
| 2026-04-22 02:24 | 54.26978 | -3.01086 | 27449 ft | 454 kts | 155° |
| 2026-04-22 02:24 | 54.24143 | -2.98753 | 27441 ft | 454 kts | 155° |
| 2026-04-22 02:24 | 54.21286 | -2.96434 | 27438 ft | 454 kts | 156° |
| 2026-04-22 02:24 | 54.18434 | -2.94202 | 27435 ft | 454 kts | 157° |
| 2026-04-22 02:25 | 54.15540 | -2.91986 | 27433 ft | 454 kts | 157° |
| 2026-04-22 02:25 | 54.12670 | -2.89818 | 27432 ft | 453 kts | 157° |
| 2026-04-22 02:25 | 54.09776 | -2.87649 | 27429 ft | 453 kts | 158° |
| 2026-04-22 02:25 | 54.06891 | -2.85527 | 27424 ft | 453 kts | 158° |
| 2026-04-22 02:26 | 54.03986 | -2.83407 | 27420 ft | 453 kts | 158° |
| 2026-04-22 02:26 | 54.01093 | -2.81307 | 27404 ft | 442 kts | 158° |
| 2026-04-22 02:26 | 53.98332 | -2.79328 | 27089 ft | 427 kts | 159° |
| 2026-04-22 02:26 | 53.95636 | -2.77392 | 26678 ft | 413 kts | 159° |
| 2026-04-22 02:27 | 53.93044 | -2.75536 | 26256 ft | 402 kts | 159° |
| 2026-04-22 02:27 | 53.90488 | -2.73702 | 25827 ft | 393 kts | 158° |
| 2026-04-22 02:27 | 53.88015 | -2.71910 | 25404 ft | 386 kts | 158° |
| 2026-04-22 02:27 | 53.85543 | -2.70114 | 24974 ft | 381 kts | 158° |
| 2026-04-22 02:28 | 53.83147 | -2.68379 | 24552 ft | 376 kts | 158° |
| 2026-04-22 02:28 | 53.80747 | -2.66655 | 24124 ft | 371 kts | 158° |
| 2026-04-22 02:28 | 53.78368 | -2.64963 | 23695 ft | 366 kts | 158° |
| 2026-04-22 02:28 | 53.76044 | -2.63321 | 23272 ft | 362 kts | 157° |
| 2026-04-22 02:29 | 53.73726 | -2.61665 | 22844 ft | 358 kts | 157° |
| 2026-04-22 02:29 | 53.71468 | -2.60043 | 22423 ft | 354 kts | 157° |
| 2026-04-22 02:29 | 53.69202 | -2.58417 | 21995 ft | 351 kts | 156° |
| 2026-04-22 02:29 | 53.66961 | -2.56791 | 21568 ft | 347 kts | 155° |
| 2026-04-22 02:30 | 53.64831 | -2.54991 | 21147 ft | 343 kts | 151° |
| 2026-04-22 02:30 | 53.62741 | -2.53053 | 20721 ft | 340 kts | 150° |
| 2026-04-22 02:30 | 53.60716 | -2.51106 | 20300 ft | 336 kts | 149° |
| 2026-04-22 02:30 | 53.58691 | -2.49125 | 19871 ft | 333 kts | 148° |
| 2026-04-22 02:31 | 53.56720 | -2.47157 | 19448 ft | 329 kts | 148° |
| 2026-04-22 02:31 | 53.54780 | -2.45207 | 19025 ft | 326 kts | 148° |
| 2026-04-22 02:31 | 53.52835 | -2.43253 | 18598 ft | 322 kts | 148° |
| 2026-04-22 02:31 | 53.50909 | -2.41325 | 18170 ft | 319 kts | 148° |
| 2026-04-22 02:32 | 53.49032 | -2.39457 | 17749 ft | 316 kts | 148° |
| 2026-04-22 02:32 | 53.47144 | -2.37585 | 17322 ft | 313 kts | 148° |
| 2026-04-22 02:32 | 53.45289 | -2.35742 | 16898 ft | 310 kts | 148° |
| 2026-04-22 02:32 | 53.43432 | -2.33862 | 16468 ft | 307 kts | 147° |
| 2026-04-22 02:33 | 53.41629 | -2.32021 | 16046 ft | 305 kts | 147° |
| 2026-04-22 02:33 | 53.39819 | -2.30167 | 15618 ft | 302 kts | 147° |
| 2026-04-22 02:33 | 53.38047 | -2.28354 | 15195 ft | 300 kts | 147° |
| 2026-04-22 02:33 | 53.36267 | -2.26534 | 14768 ft | 297 kts | 147° |
| 2026-04-22 02:34 | 53.34505 | -2.24736 | 14345 ft | 295 kts | 147° |
| 2026-04-22 02:34 | 53.32777 | -2.22977 | 13920 ft | 292 kts | 147° |
| 2026-04-22 02:34 | 53.31043 | -2.21213 | 13493 ft | 290 kts | 147° |
| 2026-04-22 02:34 | 53.29318 | -2.19463 | 13065 ft | 287 kts | 147° |
| 2026-04-22 02:35 | 53.27632 | -2.17756 | 12645 ft | 285 kts | 147° |
| 2026-04-22 02:35 | 53.25942 | -2.16049 | 12219 ft | 283 kts | 147° |
| 2026-04-22 02:35 | 53.24263 | -2.14357 | 11793 ft | 280 kts | 147° |
| 2026-04-22 02:35 | 53.22592 | -2.12683 | 11367 ft | 278 kts | 147° |
| 2026-04-22 02:36 | 53.20934 | -2.11038 | 10942 ft | 276 kts | 147° |
| 2026-04-22 02:36 | 53.19280 | -2.09419 | 10513 ft | 273 kts | 147° |
| 2026-04-22 02:36 | 53.17651 | -2.07847 | 10156 ft | 269 kts | 147° |
| 2026-04-22 02:36 | 53.16030 | -2.06306 | 9878 ft | 266 kts | 147° |
| 2026-04-22 02:37 | 53.14428 | -2.04797 | 9604 ft | 265 kts | 147° |
| 2026-04-22 02:37 | 53.12810 | -2.03288 | 9327 ft | 264 kts | 147° |
| 2026-04-22 02:37 | 53.11214 | -2.01815 | 9053 ft | 263 kts | 147° |
| 2026-04-22 02:37 | 53.09621 | -2.00330 | 8779 ft | 261 kts | 145° |
| 2026-04-22 02:38 | 53.08142 | -1.98653 | 8507 ft | 258 kts | 140° |
| 2026-04-22 02:38 | 53.06740 | -1.96879 | 8219 ft | 246 kts | 138° |
| 2026-04-22 02:38 | 53.05419 | -1.95155 | 7912 ft | 236 kts | 137° |
| 2026-04-22 02:38 | 53.04167 | -1.93516 | 7613 ft | 228 kts | 137° |
| 2026-04-22 02:39 | 53.02939 | -1.91911 | 7304 ft | 221 kts | 137° |
| 2026-04-22 02:39 | 53.01748 | -1.90363 | 7050 ft | 212 kts | 137° |
| 2026-04-22 02:39 | 53.00606 | -1.88892 | 6794 ft | 206 kts | 137° |
| 2026-04-22 02:39 | 52.99488 | -1.87463 | 6538 ft | 200 kts | 137° |
| 2026-04-22 02:40 | 52.98387 | -1.86068 | 6284 ft | 196 kts | 137° |
| 2026-04-22 02:40 | 52.97318 | -1.84722 | 6039 ft | 194 kts | 137° |
| 2026-04-22 02:40 | 52.96238 | -1.83370 | 5783 ft | 193 kts | 137° |
| 2026-04-22 02:40 | 52.95185 | -1.82055 | 5597 ft | 190 kts | 137° |
| 2026-04-22 02:41 | 52.94127 | -1.80742 | 5426 ft | 186 kts | 137° |
| 2026-04-22 02:41 | 52.93082 | -1.79452 | 5244 ft | 188 kts | 137° |
| 2026-04-22 02:41 | 52.92035 | -1.78161 | 5050 ft | 189 kts | 137° |
| 2026-04-22 02:41 | 52.90972 | -1.76862 | 4848 ft | 189 kts | 137° |
| 2026-04-22 02:42 | 52.89917 | -1.75578 | 4651 ft | 189 kts | 137° |
| 2026-04-22 02:42 | 52.88857 | -1.74292 | 4451 ft | 188 kts | 137° |
| 2026-04-22 02:42 | 52.87822 | -1.73047 | 4280 ft | 183 kts | 137° |
| 2026-04-22 02:42 | 52.86807 | -1.71841 | 4090 ft | 176 kts | 137° |
| 2026-04-22 02:43 | 52.85817 | -1.70678 | 3911 ft | 172 kts | 137° |
| 2026-04-22 02:43 | 52.84851 | -1.69551 | 3720 ft | 169 kts | 137° |
| 2026-04-22 02:43 | 52.83900 | -1.68447 | 3555 ft | 167 kts | 136° |
| 2026-04-22 02:43 | 52.83184 | -1.67020 | 3372 ft | 158 kts | 114° |
| 2026-04-22 02:44 | 52.82815 | -1.65326 | 3211 ft | 156 kts | 102° |
| 2026-04-22 02:44 | 52.82648 | -1.63574 | 3044 ft | 155 kts | 95° |
| 2026-04-22 02:44 | 52.82592 | -1.61790 | 2870 ft | 155 kts | 91° |
| 2026-04-22 02:44 | 52.82592 | -1.60016 | 2698 ft | 154 kts | 89° |
| 2026-04-22 02:45 | 52.82614 | -1.58240 | 2521 ft | 154 kts | 88° |
| 2026-04-22 02:45 | 52.82645 | -1.56498 | 2383 ft | 153 kts | 88° |
| 2026-04-22 02:45 | 52.82679 | -1.54739 | 2276 ft | 153 kts | 88° |
| 2026-04-22 02:45 | 52.82712 | -1.52973 | 2190 ft | 151 kts | 88° |
| 2026-04-22 02:46 | 52.82745 | -1.51251 | 2099 ft | 151 kts | 88° |
| 2026-04-22 02:46 | 52.82777 | -1.49614 | 2009 ft | 131 kts | 88° |
| 2026-04-22 02:46 | 52.82806 | -1.48167 | 1892 ft | 123 kts | 88° |
| 2026-04-22 02:46 | 52.82833 | -1.46755 | 1736 ft | 124 kts | 87° |
| 2026-04-22 02:47 | 52.82861 | -1.45314 | 1568 ft | 127 kts | 87° |
| 2026-04-22 02:47 | 52.82890 | -1.43832 | 1428 ft | 130 kts | 87° |
| 2026-04-22 02:47 | 52.82919 | -1.42343 | 1281 ft | 132 kts | 87° |
| 2026-04-22 02:47 | 52.82948 | -1.40816 | 1113 ft | 133 kts | 87° |
| 2026-04-22 02:48 | 52.82978 | -1.39260 | 907 ft | 135 kts | 88° |
| 2026-04-22 02:48 | 52.83008 | -1.37719 | 715 ft | 134 kts | 88° |
| 2026-04-22 02:48 | 52.83036 | -1.36185 | 536 ft | 133 kts | 88° |
| 2026-04-22 02:48 | 52.83063 | -1.34682 | 361 ft | 129 kts | 88° |
| 2026-04-22 02:49 | 52.83089 | -1.33318 | 315 ft | 97 kts | 88° |
| 2026-04-22 02:49 | 52.83105 | -1.32419 | 315 ft | 65 kts | 88° |
| 2026-04-22 02:49 | 52.83116 | -1.31797 | 315 ft | 45 kts | 88° |
| 2026-04-22 02:49 | 52.83123 | -1.31417 | 315 ft | 7 kts | 90° |
| 2026-04-22 02:50 | 52.83123 | -1.31413 | 315 ft | 0 kts | 93° |
| 2026-04-22 02:50 | 52.83120 | -1.31375 | 315 ft | 8 kts | 100° |
| 2026-04-22 02:50 | 52.83058 | -1.31320 | 315 ft | 14 kts | 179° |
| 2026-04-22 02:50 | 52.82959 | -1.31360 | 315 ft | 15 kts | 249° |
| 2026-04-22 02:51 | 52.82951 | -1.31557 | 315 ft | 20 kts | 268° |
| 2026-04-22 02:51 | 52.82946 | -1.31813 | 315 ft | 25 kts | 268° |
| 2026-04-22 02:51 | 52.82941 | -1.32120 | 315 ft | 27 kts | 268° |
| 2026-04-22 02:51 | 52.82936 | -1.32392 | 315 ft | 8 kts | 268° |
| 2026-04-22 02:52 | 52.82934 | -1.32503 | 315 ft | 11 kts | 268° |
| 2026-04-22 02:52 | 52.82931 | -1.32641 | 315 ft | 13 kts | 268° |
| 2026-04-22 02:52 | 52.82928 | -1.32803 | 315 ft | 15 kts | 268° |
| 2026-04-22 02:52 | 52.82925 | -1.32955 | 315 ft | 10 kts | 268° |
| 2026-04-22 02:53 | 52.82923 | -1.33075 | 315 ft | 11 kts | 268° |
| 2026-04-22 02:53 | 52.82920 | -1.33208 | 315 ft | 12 kts | 268° |
| 2026-04-22 02:53 | 52.82918 | -1.33355 | 315 ft | 13 kts | 268° |
| 2026-04-22 02:53 | 52.82915 | -1.33500 | 315 ft | 10 kts | 268° |
| 2026-04-22 02:54 | 52.82894 | -1.33602 | 315 ft | 10 kts | 211° |
| 2026-04-22 02:54 | 52.82826 | -1.33609 | 315 ft | 11 kts | 178° |
| 2026-04-22 02:54 | 52.82756 | -1.33606 | 315 ft | 7 kts | 178° |
| 2026-04-22 02:54 | 52.82727 | -1.33577 | 315 ft | 3 kts | 101° |
| 2026-04-22 02:55 | 52.82727 | -1.33531 | 315 ft | 4 kts | 89° |
| 2026-04-22 02:55 | 52.82727 | -1.33504 | 315 ft | 0 kts | 88° |